Time;durP1;ratioP1;P1;durP2;ratioP2;P2;SDS_P1;SDS_P2;PMS_P1;PMS_P2;Temp;Humidity;BMP_temperature;BMP_pressure;BME280_temperature;BME280_humidity;BME280_pressure;Samples;Min_cycle;Max_cycle;Signal;HPM_P1;HPM_P2
2021/07/14 00:00:36;;;;;;;5.78;2.00;;;;;;;15.18;nan;100006.25;5031172;28;20030;-77
2021/07/14 00:03:02;;;;;;;2.53;1.92;;;;;;;15.23;nan;100016.31;5036257;28;20067;-78
2021/07/14 00:05:27;;;;;;;2.10;1.80;;;;;;;15.25;nan;100022.25;5022991;28;20038;-78
2021/07/14 00:07:52;;;;;;;3.63;2.10;;;;;;;15.22;nan;100022.66;5035725;28;20213;-78
2021/07/14 00:10:25;;;;;;;3.30;1.88;;;;;;;15.23;nan;100018.97;5035117;28;20033;-77
2021/07/14 00:23:24;;;;;;;2.85;2.17;;;;;;;15.33;nan;100003.47;5036204;28;20552;-77
2021/07/14 00:25:49;;;;;;;2.60;2.15;;;;;;;15.35;nan;99998.78;5029402;28;20037;-77
2021/07/14 00:28:15;;;;;;;3.45;2.33;;;;;;;15.33;nan;99986.69;5035572;28;20502;-77
2021/07/14 00:30:48;;;;;;;5.47;2.17;;;;;;;15.30;nan;99985.22;5034001;28;20417;-77
2021/07/14 00:33:13;;;;;;;3.17;2.40;;;;;;;15.32;nan;99990.34;5027773;28;20033;-78
2021/07/14 00:35:38;;;;;;;3.17;2.08;;;;;;;15.32;nan;99990.34;5027051;28;20037;-77
2021/07/14 00:38:04;;;;;;;3.20;2.40;;;;;;;15.32;nan;99983.16;5034921;28;20052;-77
2021/07/14 00:40:30;;;;;;;2.95;2.20;;;;;;;15.35;nan;99979.28;5032803;28;20036;-77
2021/07/14 00:42:55;;;;;;;3.63;2.25;;;;;;;15.39;nan;99980.56;5037254;28;20159;-77
2021/07/14 00:45:20;;;;;;;4.03;2.30;;;;;;;15.35;nan;99980.13;5035869;28;20037;-77
2021/07/14 00:47:49;;;;;;;2.88;2.10;;;;;;;15.38;nan;99969.09;5030525;28;20035;-78
2021/07/14 00:50:15;;;;;;;2.78;2.33;;;;;;;15.37;nan;99964.75;5033306;28;20406;-77
2021/07/14 00:52:41;;;;;;;4.18;2.25;;;;;;;15.33;nan;99960.84;5028109;28;20094;-77
2021/07/14 00:55:07;;;;;;;2.97;2.38;;;;;;;15.37;nan;99963.94;5025552;28;20154;-77
2021/07/14 00:57:32;;;;;;;2.97;2.40;;;;;;;15.35;nan;99952.66;5025295;28;20034;-77
2021/07/14 00:59:58;;;;;;;3.50;2.28;;;;;;;15.31;nan;99954.09;5033592;28;20477;-77
2021/07/14 01:02:25;;;;;;;3.15;2.33;;;;;;;15.32;nan;99953.88;5031524;28;20037;-77
2021/07/14 01:05:04;;;;;;;3.53;2.00;;;;;;;15.33;nan;99960.84;5027707;28;20029;-77
2021/07/14 01:07:36;;;;;;;2.90;2.13;;;;;;;15.35;nan;99958.81;5025520;28;20038;-77
2021/07/14 01:10:09;;;;;;;4.82;2.50;;;;;;;15.35;nan;99966.81;5027896;28;20125;-77
2021/07/14 01:13:03;;;;;;;3.25;2.40;;;;;;;15.36;nan;99980.94;5012532;28;20030;-77
2021/07/14 01:15:53;;;;;;;2.67;2.17;;;;;;;15.32;nan;99975.19;5028574;28;20033;-77
2021/07/14 01:18:47;;;;;;;3.43;2.50;;;;;;;15.33;nan;99976.84;5021455;28;20034;-77
2021/07/14 01:21:28;;;;;;;2.92;2.60;;;;;;;15.36;nan;99972.97;5031034;28;20033;-77
2021/07/14 01:24:08;;;;;;;3.53;2.75;;;;;;;15.36;nan;99970.31;5012755;28;20058;-77
2021/07/14 01:27:11;;;;;;;3.78;2.65;;;;;;;15.28;nan;99965.97;5036810;28;20043;-77
2021/07/14 01:29:44;;;;;;;3.05;2.53;;;;;;;15.32;nan;99967.19;5028730;28;20037;-77
2021/07/14 01:32:12;;;;;;;4.22;2.47;;;;;;;15.33;nan;99962.72;5026427;28;20439;-77
2021/07/14 01:34:41;;;;;;;6.03;2.50;;;;;;;15.34;nan;99951.84;5028750;28;20045;-77
2021/07/14 01:37:08;;;;;;;3.50;2.20;;;;;;;15.36;nan;99944.47;5028806;28;20034;-77
2021/07/14 01:39:36;;;;;;;4.72;2.70;;;;;;;15.37;nan;99945.28;5030179;28;20120;-77
2021/07/14 01:42:03;;;;;;;2.67;2.30;;;;;;;15.43;nan;99952.50;5031062;28;20033;-77
2021/07/14 01:44:29;;;;;;;4.60;2.20;;;;;;;15.47;nan;99964.44;5024405;28;20061;-77
2021/07/14 01:46:58;;;;;;;3.17;2.53;;;;;;;15.48;nan;99961.53;5026384;28;20037;-77
2021/07/14 01:49:28;;;;;;;2.92;2.55;;;;;;;15.46;nan;99962.75;5015002;28;20385;-77
2021/07/14 01:51:59;;;;;;;2.67;2.25;;;;;;;15.45;nan;99956.63;5022244;28;20033;-77
2021/07/14 01:54:26;;;;;;;4.00;2.45;;;;;;;15.47;nan;99951.91;5028523;28;21108;-77
2021/07/14 01:56:53;;;;;;;3.45;2.50;;;;;;;15.49;nan;99957.88;5019736;28;20313;-77
2021/07/14 01:59:21;;;;;;;3.90;2.33;;;;;;;15.49;nan;99962.34;5027512;28;20124;-76
2021/07/14 02:01:48;;;;;;;2.78;2.22;;;;;;;15.49;nan;99957.88;5017922;28;20513;-77
2021/07/14 02:04:31;;;;;;;3.30;2.45;;;;;;;15.45;nan;99955.81;5029722;28;20111;-77
2021/07/14 02:07:05;;;;;;;4.15;2.50;;;;;;;15.46;nan;99957.44;5017386;28;20051;-77
2021/07/14 02:09:35;;;;;;;3.20;2.30;;;;;;;15.44;nan;99960.28;5027354;28;20068;-76
2021/07/14 02:12:03;;;;;;;4.20;2.80;;;;;;;15.36;nan;99959.66;5027838;28;20029;-77
2021/07/14 02:14:36;;;;;;;2.92;2.10;;;;;;;15.36;nan;99957.78;5020067;28;20524;-76
2021/07/14 02:17:05;;;;;;;4.07;2.30;;;;;;;15.39;nan;99953.91;5024502;28;20176;-76
2021/07/14 02:19:33;;;;;;;3.70;2.50;;;;;;;15.37;nan;99958.63;5028969;28;20378;-77
2021/07/14 02:22:01;;;;;;;2.95;2.47;;;;;;;15.35;nan;99953.50;5026802;28;20075;-77
2021/07/14 02:24:26;;;;;;;2.97;2.30;;;;;;;15.35;nan;99947.31;5013169;28;20068;-76
2021/07/14 02:26:54;;;;;;;3.17;2.50;;;;;;;15.37;nan;99956.75;5023359;28;20034;-77
2021/07/14 02:29:19;;;;;;;4.00;2.20;;;;;;;15.35;nan;99966.81;5028162;28;20037;-76
2021/07/14 02:31:44;;;;;;;2.92;2.35;;;;;;;15.38;nan;99970.94;5029233;28;20040;-77
2021/07/14 02:34:10;;;;;;;3.35;2.40;;;;;;;15.35;nan;99958.81;5043926;28;20033;-77
2021/07/14 02:36:38;;;;;;;2.50;2.30;;;;;;;15.37;nan;99962.09;5028763;28;20095;-77
2021/07/14 02:39:07;;;;;;;3.53;2.40;;;;;;;15.32;nan;99964.53;5028507;28;20033;-77
2021/07/14 02:41:46;;;;;;;3.65;2.47;;;;;;;15.34;nan;99977.66;5029720;28;20044;-76
2021/07/14 02:44:14;;;;;;;3.38;2.60;;;;;;;15.34;nan;99983.00;5025089;28;20038;-77
2021/07/14 02:46:43;;;;;;;5.55;2.45;;;;;;;15.33;nan;99992.00;5027350;28;20029;-77
2021/07/14 02:49:12;;;;;;;3.95;2.90;;;;;;;15.31;nan;99994.03;5015958;28;20046;-77
2021/07/14 02:51:39;;;;;;;3.25;2.80;;;;;;;15.30;nan;99990.53;5030211;28;20039;-76
2021/07/14 02:54:12;;;;;;;4.55;2.60;;;;;;;15.29;nan;99986.25;5025947;28;20041;-76
2021/07/14 02:56:39;;;;;;;3.60;2.67;;;;;;;15.25;nan;99977.81;5028602;28;20587;-77
2021/07/14 02:59:08;;;;;;;3.55;2.50;;;;;;;15.29;nan;99975.59;5029974;28;20029;-76
2021/07/14 03:01:39;;;;;;;4.85;2.88;;;;;;;15.26;nan;99975.97;5025025;28;20441;-76
2021/07/14 03:04:05;;;;;;;3.53;2.60;;;;;;;15.25;nan;99969.84;5024173;28;20029;-77
2021/07/14 03:06:34;;;;;;;3.55;2.47;;;;;;;15.25;nan;99966.31;5027915;28;20044;-77
2021/07/14 03:09:04;;;;;;;3.58;2.72;;;;;;;15.26;nan;99954.69;5026883;28;20124;-77
2021/07/14 03:11:38;;;;;;;6.32;2.88;;;;;;;15.25;nan;99943.19;5024353;28;20040;-77
2021/07/14 03:14:05;;;;;;;5.55;2.72;;;;;;;15.23;nan;99939.06;5023165;28;20547;-77
2021/07/14 03:16:35;;;;;;;5.57;2.60;;;;;;;15.22;nan;99942.75;5027057;28;20497;-77
2021/07/14 03:19:01;;;;;;;4.00;2.30;;;;;;;15.20;nan;99955.44;5022724;28;20040;-77
2021/07/14 03:21:30;;;;;;;4.80;2.85;;;;;;;15.22;nan;99962.22;5024211;28;20026;-76
2021/07/14 03:23:56;;;;;;;5.00;2.72;;;;;;;15.20;nan;99958.94;5028370;28;20032;-76
2021/07/14 03:26:21;;;;;;;3.13;2.78;;;;;;;15.20;nan;99958.09;5027397;28;20030;-76
2021/07/14 03:28:47;;;;;;;3.63;2.67;;;;;;;15.19;nan;99946.63;5031212;28;20370;-78
2021/07/14 03:31:13;;;;;;;3.30;2.63;;;;;;;15.20;nan;99942.13;5029875;28;20287;-78
2021/07/14 03:33:39;;;;;;;6.60;2.60;;;;;;;15.20;nan;99929.63;5025800;28;20124;-76
2021/07/14 03:36:07;;;;;;;3.90;3.15;;;;;;;15.25;nan;99923.72;5025634;28;20474;-77
2021/07/14 03:38:33;;;;;;;4.22;3.13;;;;;;;15.23;nan;99921.25;5023603;28;20061;-77
2021/07/14 03:41:00;;;;;;;3.92;2.97;;;;;;;15.21;nan;99938.47;5030203;28;20034;-78
2021/07/14 03:43:27;;;;;;;6.15;3.13;;;;;;;15.18;nan;99946.81;5025154;28;20311;-76
2021/07/14 03:45:53;;;;;;;7.22;3.70;;;;;;;15.18;nan;99950.34;5030389;28;20493;-78
2021/07/14 03:48:21;;;;;;;5.90;3.78;;;;;;;15.17;nan;99947.84;5030042;28;20045;-78
2021/07/14 03:50:48;;;;;;;6.57;4.00;;;;;;;15.25;nan;99947.69;5021843;28;20034;-78
2021/07/14 03:55:45;;;;;;;6.95;4.30;;;;;;;15.20;nan;99964.25;5009553;28;20038;-79
2021/07/14 03:58:10;;;;;;;7.50;4.03;;;;;;;15.24;nan;99962.84;5010115;28;20034;-80
2021/07/14 04:00:36;;;;;;;5.22;4.10;;;;;;;15.26;nan;99965.31;5012054;28;20034;-79
2021/07/14 04:03:02;;;;;;;7.07;4.25;;;;;;;15.26;nan;99970.66;5012467;28;20037;-80
2021/07/14 04:05:29;;;;;;;6.72;4.03;;;;;;;15.29;nan;99968.41;5011614;28;20042;-80
2021/07/14 04:07:57;;;;;;;4.78;3.75;;;;;;;15.30;nan;99958.56;5010559;28;20030;-79
2021/07/14 04:10:22;;;;;;;6.22;3.72;;;;;;;15.32;nan;99959.19;5011404;28;20034;-78
2021/07/14 04:12:49;;;;;;;8.02;4.95;;;;;;;15.31;nan;99954.91;5013907;28;20030;-79
2021/07/14 04:15:14;;;;;;;5.53;4.57;;;;;;;15.33;nan;99950.22;4999153;28;20026;-79
2021/07/14 04:17:40;;;;;;;7.13;4.80;;;;;;;15.40;nan;99951.06;5012526;28;20046;-79
2021/07/14 04:20:06;;;;;;;5.72;4.43;;;;;;;15.38;nan;99955.75;5013291;28;20128;-79
2021/07/14 04:22:31;;;;;;;7.55;4.78;;;;;;;15.43;nan;99963.97;5013644;28;20030;-79
2021/07/14 04:24:57;;;;;;;7.15;5.35;;;;;;;15.43;nan;99955.16;5012831;28;20478;-79
2021/07/14 04:27:22;;;;;;;6.68;5.10;;;;;;;15.45;nan;99956.63;5015885;28;20026;-78
2021/07/14 04:29:48;;;;;;;8.13;5.60;;;;;;;15.46;nan;99958.25;5011913;28;20121;-79
2021/07/14 04:32:13;;;;;;;7.95;6.07;;;;;;;15.45;nan;99956.63;5011165;28;20544;-79
2021/07/14 04:34:38;;;;;;;7.03;5.80;;;;;;;15.47;nan;99965.25;5012032;28;20465;-78
2021/07/14 04:37:04;;;;;;;8.88;5.88;;;;;;;15.58;nan;99963.84;5012110;28;20038;-79
2021/07/14 04:39:29;;;;;;;7.10;5.40;;;;;;;15.58;nan;99973.69;5012503;28;20034;-78
2021/07/14 04:41:54;;;;;;;7.70;5.80;;;;;;;15.57;nan;99975.53;5012079;28;20037;-79
2021/07/14 04:47:19;;;;;;;9.68;5.40;;;;;;;15.58;nan;99979.81;4975822;28;20100;-79
2021/07/14 04:49:45;;;;;;;7.57;5.68;;;;;;;15.54;nan;99983.09;5015528;28;20045;-79
2021/07/14 04:52:11;;;;;;;10.23;5.93;;;;;;;15.60;nan;99987.63;5015176;28;20033;-78
2021/07/14 04:54:39;;;;;;;8.70;5.63;;;;;;;15.63;nan;99988.03;5015424;28;20034;-78
2021/07/14 04:57:06;;;;;;;11.15;6.30;;;;;;;15.59;nan;99985.97;4997666;28;20062;-77
2021/07/14 04:59:35;;;;;;;8.13;5.40;;;;;;;15.58;nan;99987.00;5015037;28;20042;-80
2021/07/14 05:02:01;;;;;;;9.23;5.40;;;;;;;15.59;nan;99993.97;5017101;28;20041;-80
2021/07/14 05:04:27;;;;;;;7.80;5.30;;;;;;;15.55;nan;99982.91;5015862;28;20057;-79
2021/07/14 05:06:52;;;;;;;6.03;5.05;;;;;;;15.55;nan;99982.91;5014847;28;20049;-79
2021/07/14 05:09:18;;;;;;;7.35;4.60;;;;;;;15.52;nan;99993.97;5015538;28;20046;-78
2021/07/14 05:11:43;;;;;;;10.32;5.28;;;;;;;15.57;nan;99985.38;5015965;28;20030;-79
2021/07/14 05:14:08;;;;;;;6.72;4.95;;;;;;;15.52;nan;99983.31;4998798;28;20049;-78
2021/07/14 05:16:34;;;;;;;6.80;5.28;;;;;;;15.50;nan;99983.47;5015903;28;20048;-78
2021/07/14 05:19:02;;;;;;;8.95;5.30;;;;;;;15.47;nan;99983.88;4998361;28;20446;-78
2021/07/14 05:21:27;;;;;;;6.55;4.80;;;;;;;15.49;nan;99984.53;5015049;28;20406;-79
2021/07/14 05:23:53;;;;;;;8.77;5.25;;;;;;;15.44;nan;99984.25;5013473;28;20030;-80
2021/07/14 05:26:18;;;;;;;8.27;6.00;;;;;;;15.43;nan;99981.81;5007165;28;20038;-79
2021/07/14 05:28:44;;;;;;;8.25;5.35;;;;;;;15.42;nan;99980.16;5014620;28;20041;-78
2021/07/14 05:31:10;;;;;;;7.80;5.95;;;;;;;15.36;nan;99975.63;5014743;28;20034;-79
2021/07/14 05:33:35;;;;;;;;;;;;;;;15.36;nan;99976.44;4990411;28;20110;-77
2021/07/14 05:36:00;;;;;;;6.10;4.80;;;;;;;15.39;nan;99973.38;5015260;28;20071;-78
2021/07/14 05:38:28;;;;;;;8.48;5.45;;;;;;;15.48;nan;99969.53;5014275;28;20041;-78
2021/07/14 05:40:54;;;;;;;9.02;5.20;;;;;;;15.50;nan;99967.50;4998343;28;20097;-78
2021/07/14 05:43:20;;;;;;;7.22;5.10;;;;;;;15.57;nan;99972.88;4996820;28;20037;-78
2021/07/14 05:45:46;;;;;;;7.43;5.50;;;;;;;15.65;nan;99971.88;5012072;28;20512;-80
2021/07/14 05:48:12;;;;;;;8.18;4.80;;;;;;;15.67;nan;99975.16;4990284;28;20046;-78
2021/07/14 05:50:38;;;;;;;7.95;4.80;;;;;;;15.77;nan;99969.50;4995681;28;20532;-78
2021/07/14 05:53:04;;;;;;;8.02;5.38;;;;;;;15.78;nan;99971.97;5014544;28;20504;-77
2021/07/14 05:55:30;;;;;;;7.15;5.13;;;;;;;15.77;nan;99969.50;5013676;28;20037;-77
2021/07/14 05:57:56;;;;;;;7.78;4.63;;;;;;;15.78;nan;99966.63;4999812;28;20026;-78
2021/07/14 06:00:21;;;;;;;8.75;5.00;;;;;;;15.85;nan;99963.97;5013548;28;20541;-78
2021/07/14 06:02:47;;;;;;;5.88;5.03;;;;;;;15.87;nan;99973.44;5013441;28;20030;-76
2021/07/14 06:05:13;;;;;;;5.70;4.40;;;;;;;15.97;nan;99978.41;5012674;28;20239;-77
2021/07/14 06:07:39;;;;;;;5.78;3.95;;;;;;;16.07;nan;99978.81;4997675;28;20121;-77
2021/07/14 06:10:06;;;;;;;5.28;4.20;;;;;;;16.09;nan;99981.31;5013585;28;20401;-78
2021/07/14 06:12:32;;;;;;;5.28;4.28;;;;;;;16.22;nan;99969.81;5013507;28;20469;-77
2021/07/14 06:14:57;;;;;;;4.97;4.32;;;;;;;16.27;nan;99967.38;5014984;28;20049;-77
2021/07/14 06:17:22;;;;;;;5.60;3.92;;;;;;;16.31;nan;99969.44;5000993;28;20029;-77
2021/07/14 06:19:48;;;;;;;5.07;3.60;;;;;;;16.35;nan;99967.16;5018361;28;20095;-77
2021/07/14 06:22:13;;;;;;;6.75;3.45;;;;;;;16.24;nan;99965.94;5016138;28;20374;-77
2021/07/14 06:24:40;;;;;;;5.63;4.40;;;;;;;16.30;nan;99972.28;4994689;28;20045;-77
2021/07/14 06:27:06;;;;;;;6.10;3.92;;;;;;;16.28;nan;99963.66;4994386;28;20109;-77
2021/07/14 06:29:31;;;;;;;6.20;3.70;;;;;;;16.34;nan;99965.53;4996362;28;20128;-77
2021/07/14 06:31:57;;;;;;;5.40;3.88;;;;;;;16.27;nan;99972.72;5013069;28;20084;-76
2021/07/14 06:34:24;;;;;;;4.82;3.70;;;;;;;16.21;nan;99966.34;5016189;28;20080;-82
2021/07/14 06:36:49;;;;;;;5.63;3.65;;;;;;;16.20;nan;99967.34;5019768;28;20057;-82
2021/07/14 06:39:14;;;;;;;7.05;3.97;;;;;;;16.16;nan;99966.13;5002589;28;20029;-82
2021/07/14 06:41:40;;;;;;;4.40;3.70;;;;;;;16.11;nan;99964.06;5001573;28;20489;-82
2021/07/14 06:44:06;;;;;;;5.30;4.18;;;;;;;16.14;nan;99970.84;5004824;28;20034;-82
2021/07/14 06:46:31;;;;;;;5.35;3.65;;;;;;;16.10;nan;99966.94;5018525;28;20026;-82
2021/07/14 06:48:58;;;;;;;4.82;3.78;;;;;;;16.12;nan;99975.56;5018655;28;20434;-83
2021/07/14 06:51:24;;;;;;;4.95;3.97;;;;;;;16.13;nan;99980.66;5000301;28;20026;-83
2021/07/14 06:53:50;;;;;;;5.55;3.47;;;;;;;16.14;nan;99979.66;5019403;28;20148;-82
2021/07/14 06:56:15;;;;;;;6.35;4.07;;;;;;;16.16;nan;99976.81;5009904;28;20037;-83
2021/07/14 06:58:41;;;;;;;4.80;4.03;;;;;;;16.15;nan;99975.13;5002241;28;20072;-83
2021/07/14 07:01:08;;;;;;;6.68;3.95;;;;;;;16.17;nan;99973.09;5000301;28;20049;-83
2021/07/14 07:03:34;;;;;;;5.25;4.25;;;;;;;16.13;nan;99980.66;5018443;28;20050;-82
2021/07/14 07:06:01;;;;;;;5.18;4.07;;;;;;;16.11;nan;99974.75;5004780;28;20045;-84
2021/07/14 07:08:27;;;;;;;5.88;4.20;;;;;;;16.11;nan;99974.75;5017537;28;20446;-83
2021/07/14 07:10:52;;;;;;;5.68;3.78;;;;;;;16.09;nan;99966.13;5001009;28;20042;-83
2021/07/14 07:13:19;;;;;;;6.60;4.18;;;;;;;16.16;nan;99967.97;5018718;28;20034;-83
2021/07/14 07:15:47;;;;;;;5.78;4.00;;;;;;;16.19;nan;99957.72;5018583;28;20040;-83
2021/07/14 07:18:13;;;;;;;5.80;4.00;;;;;;;16.21;nan;99962.84;5018656;28;20053;-83
2021/07/14 07:20:40;;;;;;;5.88;3.97;;;;;;;16.27;nan;99970.03;5009168;28;20498;-83
2021/07/14 07:23:05;;;;;;;5.57;3.90;;;;;;;16.28;nan;99966.34;5004652;28;20032;-83
2021/07/14 07:25:31;;;;;;;5.90;3.95;;;;;;;16.31;nan;99969.44;5001878;28;20038;-84
2021/07/14 07:27:59;;;;;;;4.50;3.67;;;;;;;16.26;nan;99966.56;5017105;28;20045;-83
2021/07/14 07:30:25;;;;;;;6.80;3.80;;;;;;;16.30;nan;99967.81;5018790;28;20046;-83
2021/07/14 07:32:50;;;;;;;;;;;;;;;16.34;nan;99971.69;5000562;28;20030;-83
2021/07/14 07:35:15;;;;;;;5.77;4.10;;;;;;;16.37;nan;99969.63;5000718;28;19913;-83
2021/07/14 07:37:41;;;;;;;6.53;4.38;;;;;;;16.35;nan;99973.34;5017468;28;20649;-84
2021/07/14 07:40:07;;;;;;;5.97;4.40;;;;;;;16.38;nan;99973.97;5000641;28;20038;-84
2021/07/14 07:42:33;;;;;;;6.43;4.22;;;;;;;16.38;nan;99982.78;5000727;28;20457;-83
2021/07/14 07:44:58;;;;;;;5.30;4.78;;;;;;;16.40;nan;99995.91;5001100;28;20276;-83
2021/07/14 07:47:24;;;;;;;7.07;4.38;;;;;;;16.38;nan;99985.47;5016453;28;20030;-83
2021/07/14 07:49:49;;;;;;;6.03;4.80;;;;;;;16.43;nan;99987.53;5017421;28;20085;-84
2021/07/14 07:52:18;;;;;;;8.23;4.68;;;;;;;16.44;nan;99983.81;5016982;28;20042;-83
2021/07/14 07:54:44;;;;;;;6.90;4.95;;;;;;;16.44;nan;99983.81;5019250;28;20049;-84
2021/07/14 07:57:09;;;;;;;6.28;4.78;;;;;;;16.44;nan;99984.63;5002817;28;20065;-83
2021/07/14 07:59:35;;;;;;;5.85;4.80;;;;;;;16.49;nan;99989.34;5019157;28;20094;-82
2021/07/14 08:02:04;;;;;;;4.85;4.35;;;;;;;16.51;nan;99985.47;5019065;28;20032;-84
2021/07/14 08:04:29;;;;;;;5.40;4.57;;;;;;;16.43;nan;99983.00;5016622;28;20046;-85
2021/07/14 08:06:55;;;;;;;5.85;4.20;;;;;;;16.42;nan;99980.53;5009082;28;20057;-84
2021/07/14 08:09:20;;;;;;;5.20;4.10;;;;;;;16.48;nan;99971.72;5030393;28;20109;-82
2021/07/14 08:11:46;;;;;;;5.60;4.43;;;;;;;16.49;nan;99981.34;5028228;28;20030;-85
2021/07/14 08:14:13;;;;;;;6.18;4.68;;;;;;;16.57;nan;99981.16;5028815;28;20418;-84
2021/07/14 08:16:38;;;;;;;6.70;5.53;;;;;;;16.53;nan;99977.25;5024390;28;20038;-83
2021/07/14 08:19:04;;;;;;;8.10;5.47;;;;;;;16.60;nan;99991.44;5026943;28;20062;-84
2021/07/14 08:21:29;;;;;;;7.28;5.13;;;;;;;16.61;nan;99992.25;5026637;28;20030;-83
2021/07/14 08:23:55;;;;;;;5.78;5.13;;;;;;;16.65;nan;99990.81;5012532;28;20089;-83
2021/07/14 08:26:20;;;;;;;5.45;4.65;;;;;;;16.66;nan;99982.63;5028992;28;20137;-82
2021/07/14 08:28:46;;;;;;;5.32;4.75;;;;;;;16.72;nan;99981.78;5027227;28;20045;-84
2021/07/14 08:31:11;;;;;;;7.97;4.97;;;;;;;16.72;nan;99970.28;5029215;28;20057;-82
2021/07/14 08:33:37;;;;;;;5.53;4.57;;;;;;;16.65;nan;99964.94;5011680;28;20475;-83
2021/07/14 08:36:03;;;;;;;7.15;5.03;;;;;;;16.65;nan;99959.59;5011156;28;20061;-82
2021/07/14 08:38:29;;;;;;;7.53;5.05;;;;;;;16.59;nan;99964.94;5029089;28;20121;-83
2021/07/14 08:40:57;;;;;;;7.55;5.55;;;;;;;16.58;nan;99965.97;5011704;28;20036;-82
2021/07/14 08:43:27;;;;;;;6.80;4.80;;;;;;;16.58;nan;99972.13;5020900;28;20030;-84
2021/07/14 08:45:54;;;;;;;10.30;5.15;;;;;;;16.58;nan;99973.97;5012434;28;20121;-84
2021/07/14 08:48:19;;;;;;;6.82;4.78;;;;;;;16.55;nan;99973.34;5026971;28;20248;-82
2021/07/14 08:50:47;;;;;;;7.18;4.97;;;;;;;16.52;nan;99983.63;5011890;28;20022;-82
2021/07/14 08:53:20;;;;;;;6.05;4.53;;;;;;;16.48;nan;99987.72;5029611;28;20038;-83
2021/07/14 08:55:47;;;;;;;4.78;4.25;;;;;;;16.47;nan;99997.59;5028617;28;20049;-85
2021/07/14 08:58:14;;;;;;;5.28;4.32;;;;;;;16.43;nan;100001.69;5026515;28;20026;-83
2021/07/14 09:00:40;;;;;;;6.32;4.30;;;;;;;16.50;nan;100009.69;5027821;28;20038;-81
2021/07/14 09:03:06;;;;;;;5.70;4.20;;;;;;;16.49;nan;100022.22;5026775;28;20037;-83
2021/07/14 09:05:31;;;;;;;6.13;4.40;;;;;;;16.51;nan;100020.16;5015738;28;20072;-80
2021/07/14 09:07:57;;;;;;;6.22;4.35;;;;;;;16.53;nan;100019.97;5011735;28;20030;-80
2021/07/14 09:10:23;;;;;;;6.75;4.47;;;;;;;16.49;nan;100032.91;5030179;28;20033;-79
2021/07/14 09:12:49;;;;;;;6.05;4.32;;;;;;;16.49;nan;100029.38;5009898;28;20029;-82
2021/07/14 09:15:19;;;;;;;5.35;4.10;;;;;;;16.44;nan;100021.16;5026228;28;20033;-82
2021/07/14 09:17:47;;;;;;;8.27;3.95;;;;;;;16.41;nan;100030.41;5026156;28;20069;-82
2021/07/14 09:20:19;;;;;;;5.32;3.78;;;;;;;16.41;nan;100027.75;5025849;28;20044;-83
2021/07/14 09:22:45;;;;;;;6.88;3.88;;;;;;;16.43;nan;100035.56;5024782;28;20057;-82
2021/07/14 09:25:16;;;;;;;9.05;3.63;;;;;;;16.43;nan;100030.22;5007533;28;20081;-82
2021/07/14 09:27:59;;;;;;;6.63;3.88;;;;;;;16.35;nan;100037.38;5023668;28;20502;-82
2021/07/14 09:30:27;;;;;;;6.28;3.60;;;;;;;16.40;nan;100033.28;5024528;28;20038;-82
2021/07/14 09:32:52;;;;;;;6.97;3.67;;;;;;;16.43;nan;100036.38;5005757;28;20494;-82
2021/07/14 09:35:36;;;;;;;5.47;3.10;;;;;;;16.49;nan;100029.38;5022769;28;20060;-82
2021/07/14 09:38:17;;;;;;;6.80;3.10;;;;;;;16.48;nan;100041.09;5018534;28;20117;-84
2021/07/14 09:40:50;;;;;;;4.95;3.30;;;;;;;16.45;nan;100036.19;5024115;28;20034;-82
2021/07/14 09:43:28;;;;;;;3.88;2.60;;;;;;;16.56;nan;100043.56;5023684;28;20029;-83
2021/07/14 09:45:54;;;;;;;4.13;3.00;;;;;;;16.55;nan;100044.59;5006237;28;20270;-83
2021/07/14 09:48:20;;;;;;;5.18;3.08;;;;;;;16.41;nan;100057.09;5023355;28;20034;-80
2021/07/14 09:50:48;;;;;;;4.75;3.17;;;;;;;16.39;nan;100061.81;5022593;28;20454;-82
2021/07/14 09:53:19;;;;;;;5.03;3.20;;;;;;;16.35;nan;100071.22;5013081;28;20038;-81
2021/07/14 09:55:45;;;;;;;4.53;3.42;;;;;;;16.31;nan;100086.00;5025209;28;20030;-82
2021/07/14 09:58:21;;;;;;;5.80;3.60;;;;;;;16.28;nan;100086.38;5022598;28;20022;-80
2021/07/14 10:00:53;;;;;;;6.60;3.67;;;;;;;16.22;nan;100082.69;5025098;28;20053;-82
2021/07/14 10:03:22;;;;;;;5.65;3.25;;;;;;;16.19;nan;100083.09;5023087;28;20063;-81
2021/07/14 10:05:48;;;;;;;6.13;3.25;;;;;;;16.18;nan;100080.63;5007983;28;20030;-82
2021/07/14 10:08:15;;;;;;;4.82;3.20;;;;;;;16.09;nan;100078.13;5019823;28;20114;-81
2021/07/14 10:10:41;;;;;;;4.30;3.40;;;;;;;16.07;nan;100088.16;5022951;28;20045;-81
2021/07/14 10:13:08;;;;;;;5.72;3.80;;;;;;;15.98;nan;100075.22;5003631;28;20034;-80
2021/07/14 10:15:34;;;;;;;5.55;3.70;;;;;;;15.98;nan;100075.22;4999561;28;20034;-81
2021/07/14 10:17:59;;;;;;;7.68;4.45;;;;;;;15.96;nan;100072.72;5016850;28;20037;-82
2021/07/14 10:20:32;;;;;;;6.85;3.95;;;;;;;15.92;nan;100074.13;4999441;28;20069;-81
2021/07/14 10:23:01;;;;;;;7.22;3.80;;;;;;;15.85;nan;100071.47;5017111;28;20041;-82
2021/07/14 10:25:27;;;;;;;7.72;4.05;;;;;;;15.83;nan;100060.16;5018114;28;20045;-82
2021/07/14 10:27:54;;;;;;;6.55;4.25;;;;;;;15.80;nan;100060.56;5016520;28;20117;-82
2021/07/14 10:30:20;;;;;;;5.68;4.38;;;;;;;15.78;nan;100059.94;5015000;28;20041;-83
2021/07/14 10:32:46;;;;;;;4.22;3.60;;;;;;;15.89;nan;100061.22;5015348;28;20455;-83
2021/07/14 10:35:16;;;;;;;7.50;3.75;;;;;;;15.85;nan;100063.47;4998380;28;20371;-82
2021/07/14 10:37:49;;;;;;;5.20;4.18;;;;;;;15.78;nan;100046.63;5000589;28;20038;-81
2021/07/14 10:40:18;;;;;;;7.35;4.00;;;;;;;15.77;nan;100060.13;5014005;28;20594;-82
2021/07/14 10:42:47;;;;;;;4.82;3.83;;;;;;;15.80;nan;100062.38;5019189;28;20108;-82
2021/07/14 10:45:13;;;;;;;6.75;4.28;;;;;;;15.81;nan;100070.19;5015470;28;20109;-83
2021/07/14 10:47:39;;;;;;;7.05;4.40;;;;;;;15.87;nan;100071.25;5006778;28;20114;-84
2021/07/14 10:50:06;;;;;;;7.82;4.45;;;;;;;15.82;nan;100066.50;5003300;28;20057;-84
2021/07/14 10:52:32;;;;;;;5.50;4.40;;;;;;;15.88;nan;100072.91;5004535;28;20049;-84
2021/07/14 10:54:59;;;;;;;5.32;4.25;;;;;;;15.86;nan;100081.09;5004446;28;20042;-82
2021/07/14 10:57:25;;;;;;;6.25;4.70;;;;;;;15.90;nan;100084.19;5023259;28;20038;-84
2021/07/14 10:59:51;;;;;;;6.75;3.88;;;;;;;15.93;nan;100078.47;5006489;28;20037;-82
2021/07/14 11:02:17;;;;;;;6.43;4.30;;;;;;;15.97;nan;100076.22;5008507;28;20057;-84
2021/07/14 11:04:51;;;;;;;6.10;4.60;;;;;;;15.97;nan;100079.72;5027631;28;20042;-82
2021/07/14 11:07:17;;;;;;;5.88;4.28;;;;;;;15.96;nan;100086.06;5012319;28;20037;-82
2021/07/14 11:09:47;;;;;;;4.63;4.03;;;;;;;15.91;nan;100083.97;5028027;28;20069;-82
2021/07/14 11:12:14;;;;;;;6.30;5.03;;;;;;;15.95;nan;100087.09;5025178;28;20556;-80
2021/07/14 11:14:51;;;;;;;5.47;4.47;;;;;;;15.85;nan;100082.13;5019408;28;20037;-80
2021/07/14 11:17:28;;;;;;;8.18;4.63;;;;;;;15.82;nan;100077.16;5021809;28;20038;-80
2021/07/14 11:19:54;;;;;;;7.25;4.72;;;;;;;15.81;nan;100069.38;5000199;28;20089;-80
2021/07/14 11:22:38;;;;;;;6.43;4.40;;;;;;;15.79;nan;100071.41;5022184;28;20085;-81
2021/07/14 11:25:06;;;;;;;6.95;4.40;;;;;;;15.79;nan;100068.75;5024467;28;20026;-82
2021/07/14 11:27:34;;;;;;;5.82;4.10;;;;;;;15.83;nan;100076.16;5025500;28;20041;-82
2021/07/14 11:30:03;;;;;;;6.72;4.63;;;;;;;15.79;nan;100080.22;5020453;28;20042;-81
2021/07/14 11:32:34;;;;;;;5.45;4.40;;;;;;;15.71;nan;100075.06;5020120;28;20172;-81
2021/07/14 11:34:59;;;;;;;;;;;;;;;15.75;nan;100080.81;5023004;28;20042;-81
2021/07/14 11:37:32;;;;;;;4.55;4.00;;;;;;;15.73;nan;100072.19;5020792;28;19964;-81
2021/07/14 11:40:19;;;;;;;5.47;4.03;;;;;;;15.76;nan;100072.63;5020881;28;20041;-81
2021/07/14 11:43:00;;;;;;;6.45;4.55;;;;;;;15.81;nan;100080.06;5020036;28;20065;-81
2021/07/14 11:45:34;;;;;;;6.57;4.43;;;;;;;15.80;nan;100073.91;5019403;28;20037;-80
2021/07/14 11:48:00;;;;;;;4.70;4.20;;;;;;;15.82;nan;100074.50;5023998;28;20041;-81
2021/07/14 11:50:45;;;;;;;5.40;4.35;;;;;;;15.83;nan;100062.84;5021820;28;20490;-81
2021/07/14 11:53:34;;;;;;;6.95;4.60;;;;;;;15.88;nan;100065.72;5018721;28;20121;-81
2021/07/14 11:56:03;;;;;;;5.70;4.28;;;;;;;15.83;nan;100059.34;5018380;28;20042;-81
2021/07/14 11:58:50;;;;;;;5.90;4.18;;;;;;;15.96;nan;100064.72;5022500;28;20037;-80
2021/07/14 12:01:16;;;;;;;5.97;4.80;;;;;;;16.04;nan;100074.41;5019171;28;20048;-82
2021/07/14 12:03:41;;;;;;;6.83;4.63;;;;;;;16.07;nan;100080.16;5023074;28;20029;-81
2021/07/14 12:06:37;;;;;;;5.75;4.30;;;;;;;16.07;nan;100074.84;5021489;28;20301;-80
2021/07/14 12:09:12;;;;;;;6.03;4.57;;;;;;;16.10;nan;100068.28;5015380;28;20045;-80